Time;durP1;ratioP1;P1;durP2;ratioP2;P2;SDS_P1;SDS_P2;PMS_P1;PMS_P2;Temp;Humidity;BMP_temperature;BMP_pressure;BME280_temperature;BME280_humidity;BME280_pressure;Samples;Min_cycle;Max_cycle;Signal;HPM_P1;HPM_P2
2024/04/18 00:02:11;;;;;;;0.63;0.40;;;5.00;99.90;;;;;;5462780;26;20461;-79
2024/04/18 00:04:40;;;;;;;0.80;0.43;;;5.00;99.90;;;;;;5464356;26;20562;-79
2024/04/18 00:07:06;;;;;;;1.30;0.50;;;5.10;99.90;;;;;;5453576;26;20232;-79
2024/04/18 00:09:34;;;;;;;0.50;0.40;;;5.10;99.90;;;;;;5451643;26;20502;-79
2024/04/18 00:12:00;;;;;;;1.77;0.60;;;5.10;99.90;;;;;;5450985;26;20333;-80
2024/04/18 00:14:31;;;;;;;1.47;0.60;;;5.10;99.90;;;;;;5451582;26;20453;-80
2024/04/18 00:16:56;;;;;;;0.50;0.50;;;5.10;99.90;;;;;;5451320;26;20272;-79
2024/04/18 00:19:25;;;;;;;1.43;0.60;;;5.10;99.90;;;;;;5450898;26;20961;-79
2024/04/18 00:21:50;;;;;;;0.40;0.40;;;5.10;99.90;;;;;;5450661;26;20216;-79
2024/04/18 00:24:19;;;;;;;0.80;0.50;;;5.10;99.90;;;;;;5450822;26;20453;-79
2024/04/18 00:26:45;;;;;;;0.40;0.40;;;5.20;99.90;;;;;;5449356;26;20232;-79
2024/04/18 00:29:13;;;;;;;0.50;0.40;;;5.20;99.90;;;;;;5450011;26;20445;-79
2024/04/18 00:31:41;;;;;;;1.00;0.60;;;5.10;99.90;;;;;;5450148;26;20216;-79
2024/04/18 00:34:10;;;;;;;0.60;0.50;;;5.10;99.90;;;;;;5449724;26;20449;-79
2024/04/18 00:36:35;;;;;;;0.43;0.43;;;5.20;99.90;;;;;;5449660;26;20513;-79
2024/04/18 00:39:04;;;;;;;0.57;0.40;;;5.10;99.90;;;;;;5449257;26;20445;-79
2024/04/18 00:41:29;;;;;;;0.80;0.80;;;5.00;99.90;;;;;;5449600;26;20395;-79
2024/04/18 00:43:58;;;;;;;0.67;0.67;;;5.00;99.90;;;;;;5448784;26;20484;-79
2024/04/18 00:46:27;;;;;;;0.70;0.60;;;5.10;99.90;;;;;;5449506;26;20212;-79
2024/04/18 00:48:58;;;;;;;0.43;0.40;;;5.10;99.90;;;;;;5448951;26;20522;-79
2024/04/18 00:51:23;;;;;;;0.40;0.40;;;5.10;99.90;;;;;;5448355;26;21139;-79
2024/04/18 00:53:52;;;;;;;10.30;1.07;;;5.10;99.90;;;;;;5448831;26;20442;-79
2024/04/18 00:56:18;;;;;;;0.70;0.50;;;5.10;99.90;;;;;;5447979;26;20280;-79
2024/04/18 00:58:47;;;;;;;1.40;0.60;;;5.10;99.90;;;;;;5448199;26;20532;-79
2024/04/18 01:01:13;;;;;;;2.10;0.47;;;5.10;99.90;;;;;;5447796;26;20250;-79
2024/04/18 01:03:43;;;;;;;0.70;0.70;;;5.10;99.90;;;;;;5447646;26;20445;-79
2024/04/18 01:06:12;;;;;;;0.60;0.43;;;5.20;99.90;;;;;;5448122;26;20449;-79
2024/04/18 01:08:41;;;;;;;0.30;0.30;;;5.20;99.90;;;;;;5448327;26;20465;-79
2024/04/18 01:11:07;;;;;;;1.23;0.60;;;5.20;99.90;;;;;;5447304;26;20527;-79
2024/04/18 01:13:38;;;;;;;1.03;0.97;;;5.10;99.90;;;;;;5448161;26;20946;-80
2024/04/18 01:16:05;;;;;;;0.90;0.40;;;5.10;99.90;;;;;;5447591;26;20819;-79
2024/04/18 01:18:33;;;;;;;0.70;0.40;;;5.00;99.90;;;;;;5448140;26;20535;-79
2024/04/18 01:20:59;;;;;;;0.40;0.40;;;5.00;99.90;;;;;;5448622;26;20449;-79
2024/04/18 01:23:31;;;;;;;0.40;0.37;;;4.90;99.90;;;;;;5447902;26;20532;-79
2024/04/18 01:25:56;;;;;;;1.13;0.70;;;4.90;99.90;;;;;;5447851;26;20220;-79
2024/04/18 01:28:27;;;;;;;2.63;0.60;;;4.90;99.90;;;;;;5447689;26;20578;-79
2024/04/18 01:30:53;;;;;;;0.97;0.63;;;4.90;99.90;;;;;;5448195;26;20700;-79
2024/04/18 01:33:21;;;;;;;0.67;0.67;;;4.90;99.90;;;;;;5447899;26;20543;-79
2024/04/18 01:35:47;;;;;;;0.40;0.30;;;4.90;99.90;;;;;;5452515;26;20611;-79
2024/04/18 01:38:16;;;;;;;0.60;0.50;;;4.90;99.90;;;;;;5451898;26;20555;-79
2024/04/18 01:40:41;;;;;;;0.63;0.63;;;4.90;99.90;;;;;;5452192;26;20318;-79
2024/04/18 01:43:10;;;;;;;0.70;0.70;;;5.00;99.90;;;;;;5452427;26;20863;-79
2024/04/18 01:45:38;;;;;;;0.50;0.50;;;5.00;99.90;;;;;;5451201;26;20212;-79
2024/04/18 01:48:07;;;;;;;1.17;0.50;;;5.00;99.90;;;;;;5450801;26;20466;-79
2024/04/18 01:50:33;;;;;;;0.40;0.40;;;4.90;99.90;;;;;;5450518;26;20528;-79
2024/04/18 01:53:01;;;;;;;0.73;0.50;;;4.90;99.90;;;;;;5450861;26;20873;-79
2024/04/18 01:55:27;;;;;;;1.07;0.60;;;5.00;99.90;;;;;;5450752;26;20216;-79
2024/04/18 01:57:56;;;;;;;0.50;0.40;;;4.90;99.90;;;;;;5450414;26;20481;-79
2024/04/18 02:00:21;;;;;;;0.60;0.60;;;5.00;99.90;;;;;;5449916;26;20250;-79
2024/04/18 02:02:52;;;;;;;0.50;0.50;;;5.00;99.90;;;;;;5449870;26;20454;-79
2024/04/18 02:05:18;;;;;;;0.50;0.50;;;5.00;99.90;;;;;;5450311;26;20246;-79
2024/04/18 02:07:46;;;;;;;0.40;0.40;;;5.00;99.90;;;;;;5449011;26;20874;-79
2024/04/18 02:10:12;;;;;;;0.53;0.53;;;5.00;99.90;;;;;;5449358;26;20216;-79
2024/04/18 02:12:41;;;;;;;0.60;0.50;;;5.00;99.90;;;;;;5448682;26;21086;-79
2024/04/18 02:15:07;;;;;;;0.50;0.50;;;5.00;99.90;;;;;;5448211;26;20302;-79
2024/04/18 02:17:35;;;;;;;1.30;0.73;;;4.90;99.90;;;;;;5448956;26;20474;-79
2024/04/18 02:20:04;;;;;;;0.50;0.50;;;4.90;99.90;;;;;;5448435;26;20517;-79
2024/04/18 02:22:32;;;;;;;0.63;0.50;;;4.80;99.90;;;;;;5447022;26;20454;-79
2024/04/18 02:25:06;;;;;;;0.73;0.60;;;4.80;99.90;;;;;;5447316;26;20445;-79
2024/04/18 02:27:34;;;;;;;0.70;0.70;;;4.70;99.90;;;;;;5447809;26;20521;-79
2024/04/18 02:30:00;;;;;;;1.57;0.80;;;4.70;99.90;;;;;;5446534;26;20543;-79
2024/04/18 02:32:29;;;;;;;2.50;0.70;;;4.60;99.90;;;;;;5446866;26;20442;-79
2024/04/18 02:34:55;;;;;;;0.83;0.60;;;4.70;99.90;;;;;;5446344;26;20499;-79
2024/04/18 02:37:26;;;;;;;1.00;0.70;;;4.60;99.90;;;;;;5446573;26;20461;-79
2024/04/18 02:39:51;;;;;;;0.70;0.70;;;4.60;99.90;;;;;;5446502;26;20208;-79
2024/04/18 02:42:20;;;;;;;1.40;0.77;;;4.60;99.90;;;;;;5445991;26;20445;-79
2024/04/18 02:44:46;;;;;;;0.90;0.60;;;4.60;99.90;;;;;;5446234;26;20216;-79
2024/04/18 02:47:15;;;;;;;0.80;0.80;;;4.60;99.90;;;;;;5446120;26;20512;-79
2024/04/18 02:49:40;;;;;;;0.73;0.53;;;4.60;99.90;;;;;;5445364;26;20513;-79
2024/04/18 02:52:09;;;;;;;0.93;0.50;;;4.60;99.90;;;;;;5445008;26;20462;-79
2024/04/18 02:54:37;;;;;;;0.70;0.60;;;4.60;99.90;;;;;;5444985;26;20812;-79
2024/04/18 02:57:06;;;;;;;1.00;0.70;;;4.60;99.90;;;;;;5445734;26;20536;-79
2024/04/18 02:59:32;;;;;;;0.50;0.50;;;4.60;99.90;;;;;;5445175;26;20583;-79
2024/04/18 03:02:03;;;;;;;1.37;0.70;;;4.60;99.90;;;;;;5446012;26;20449;-79
2024/04/18 03:04:29;;;;;;;0.70;0.67;;;4.50;99.90;;;;;;5445277;26;20211;-79
2024/04/18 03:06:58;;;;;;;0.43;0.43;;;4.50;99.90;;;;;;5444575;26;20550;-79
2024/04/18 03:09:23;;;;;;;1.40;1.10;;;4.40;99.90;;;;;;5445015;26;20450;-79
2024/04/18 03:11:54;;;;;;;0.60;0.60;;;4.40;99.90;;;;;;5444513;26;20510;-79
2024/04/18 03:14:20;;;;;;;4.20;0.90;;;4.40;99.90;;;;;;5445344;26;20180;-79
2024/04/18 03:16:51;;;;;;;0.60;0.60;;;4.40;99.90;;;;;;5445032;26;20578;-79
2024/04/18 03:19:17;;;;;;;0.97;0.97;;;4.40;99.90;;;;;;5444612;26;20260;-78
2024/04/18 03:21:47;;;;;;;0.70;0.47;;;4.30;99.90;;;;;;5444595;26;20539;-78
2024/04/18 03:24:17;;;;;;;0.90;0.57;;;4.30;99.90;;;;;;5444692;26;20997;-78
2024/04/18 03:26:45;;;;;;;0.70;0.70;;;4.30;99.90;;;;;;5445438;26;20470;-78
2024/04/18 03:29:13;;;;;;;0.70;0.63;;;4.30;99.90;;;;;;5446852;26;20448;-78
2024/04/18 03:31:43;;;;;;;1.20;0.67;;;4.30;99.90;;;;;;5446505;26;20877;-79
2024/04/18 03:34:09;;;;;;;1.67;0.57;;;4.30;99.90;;;;;;5444995;26;20498;-79
2024/04/18 03:36:41;;;;;;;0.40;0.40;;;4.40;99.90;;;;;;5448588;26;21076;-79
2024/04/18 03:39:10;;;;;;;0.97;0.50;;;4.40;99.90;;;;;;5448574;26;20238;-79
2024/04/18 03:41:39;;;;;;;0.80;0.67;;;4.40;99.90;;;;;;5448707;26;20442;-79
2024/04/18 03:44:07;;;;;;;1.30;0.77;;;4.40;99.90;;;;;;5448429;26;20494;-79
2024/04/18 03:46:37;;;;;;;1.40;0.70;;;4.40;99.90;;;;;;5448628;26;20441;-79
2024/04/18 03:49:07;;;;;;;1.07;1.07;;;4.30;99.90;;;;;;5448323;26;20453;-79
2024/04/18 03:51:33;;;;;;;0.73;0.70;;;4.30;99.90;;;;;;5448482;26;20565;-78
2024/04/18 03:54:01;;;;;;;1.17;0.93;;;4.20;99.90;;;;;;5448093;26;20996;-78
2024/04/18 03:56:27;;;;;;;0.47;0.47;;;4.20;99.90;;;;;;5447845;26;20660;-78
2024/04/18 03:58:55;;;;;;;0.50;0.50;;;4.20;99.90;;;;;;5448258;26;20461;-78
2024/04/18 04:01:23;;;;;;;0.90;0.50;;;4.10;99.90;;;;;;5447497;26;20808;-78
2024/04/18 04:03:55;;;;;;;1.57;1.47;;;4.10;99.90;;;;;;5448304;26;20437;-78
2024/04/18 04:06:21;;;;;;;2.47;0.70;;;4.10;99.90;;;;;;5447660;26;20848;-78
2024/04/18 04:08:50;;;;;;;0.60;0.50;;;4.10;99.90;;;;;;5447790;26;20449;-78
2024/04/18 04:11:16;;;;;;;1.00;0.90;;;4.10;99.90;;;;;;5447640;26;20561;-78
2024/04/18 04:13:44;;;;;;;1.33;0.90;;;4.10;99.90;;;;;;5448019;26;20516;-78
2024/04/18 04:16:10;;;;;;;1.10;0.90;;;4.10;99.90;;;;;;5447336;26;21045;-78
2024/04/18 04:18:38;;;;;;;1.20;1.20;;;4.10;99.90;;;;;;5447453;26;20466;-78
2024/04/18 04:21:07;;;;;;;4.77;0.70;;;4.10;99.90;;;;;;5447437;26;20208;-78
2024/04/18 04:23:36;;;;;;;0.80;0.80;;;4.10;99.90;;;;;;5447514;26;20991;-78
2024/04/18 04:26:02;;;;;;;1.13;0.70;;;4.10;99.90;;;;;;5447349;26;21053;-78
2024/04/18 04:28:30;;;;;;;1.20;0.97;;;4.10;99.90;;;;;;5447468;26;20578;-78
2024/04/18 04:30:56;;;;;;;0.70;0.60;;;4.20;99.90;;;;;;5447158;26;20250;-78
2024/04/18 04:33:24;;;;;;;0.70;0.70;;;4.20;99.90;;;;;;5447150;26;20469;-78
2024/04/18 04:35:50;;;;;;;3.13;1.17;;;4.30;99.90;;;;;;5446798;26;20254;-78
2024/04/18 04:38:21;;;;;;;2.10;0.80;;;4.30;99.90;;;;;;5446673;26;20469;-78
2024/04/18 04:40:49;;;;;;;1.13;1.13;;;4.20;99.90;;;;;;5447217;26;20288;-78
2024/04/18 04:43:15;;;;;;;0.90;0.90;;;4.30;99.90;;;;;;5447069;26;20496;-78
2024/04/18 04:45:43;;;;;;;0.60;0.40;;;4.40;99.90;;;;;;5446699;26;20453;-78
2024/04/18 04:48:09;;;;;;;1.13;1.13;;;4.40;99.90;;;;;;5447055;26;20224;-78
2024/04/18 04:50:40;;;;;;;0.90;0.90;;;4.50;99.90;;;;;;5446781;26;20562;-78
2024/04/18 04:53:06;;;;;;;1.00;0.60;;;4.50;99.90;;;;;;5447198;26;20489;-78
2024/04/18 04:55:37;;;;;;;1.30;0.70;;;4.50;99.90;;;;;;5446557;26;20450;-78
2024/04/18 04:58:03;;;;;;;0.90;0.90;;;4.50;99.90;;;;;;5446624;26;20224;-78
2024/04/18 05:00:31;;;;;;;0.57;0.57;;;4.50;99.90;;;;;;5446980;26;20438;-78
2024/04/18 05:02:57;;;;;;;0.57;0.57;;;4.50;99.90;;;;;;5446777;26;20490;-78
2024/04/18 05:05:26;;;;;;;0.50;0.50;;;4.50;99.90;;;;;;5446928;26;20551;-78
2024/04/18 05:07:51;;;;;;;0.50;0.50;;;4.60;99.90;;;;;;5446060;26;20246;-78
2024/04/18 05:10:20;;;;;;;1.20;0.90;;;4.60;99.90;;;;;;5446279;26;20458;-78
2024/04/18 05:12:48;;;;;;;0.90;0.70;;;4.60;99.90;;;;;;5446201;26;20216;-78
2024/04/18 05:15:17;;;;;;;1.00;0.80;;;4.60;99.90;;;;;;5446468;26;20450;-78
2024/04/18 05:17:43;;;;;;;0.80;0.63;;;4.60;99.90;;;;;;5447023;26;20537;-79
2024/04/18 05:20:12;;;;;;;1.87;0.97;;;4.70;99.90;;;;;;5448285;26;20601;-79
2024/04/18 05:22:37;;;;;;;1.40;1.37;;;4.70;99.90;;;;;;5449070;26;20246;-79
2024/04/18 05:25:06;;;;;;;1.07;0.93;;;4.70;99.90;;;;;;5449011;26;20501;-79
2024/04/18 05:27:32;;;;;;;1.60;0.87;;;4.70;99.90;;;;;;5449135;26;20739;-79
2024/04/18 05:32:47;;;;;;;1.00;0.80;;;4.70;99.90;;;;;;5451140;26;20255;-79
2024/04/18 05:35:16;;;;;;;1.70;0.90;;;4.70;99.90;;;;;;5448447;26;20985;-79
2024/04/18 05:37:44;;;;;;;1.37;0.60;;;4.70;99.90;;;;;;5448539;26;20576;-79
2024/04/18 05:40:13;;;;;;;1.20;1.03;;;4.70;99.90;;;;;;5449026;26;20806;-79
2024/04/18 05:42:41;;;;;;;1.07;1.00;;;4.80;99.90;;;;;;5448493;26;20453;-79
2024/04/18 05:45:12;;;;;;;1.50;1.00;;;4.90;99.90;;;;;;5447659;26;20497;-79
2024/04/18 05:47:41;;;;;;;0.90;0.90;;;4.90;99.90;;;;;;5446381;26;20489;-78
2024/04/18 05:50:09;;;;;;;1.37;0.90;;;4.80;99.90;;;;;;5447180;26;20513;-78
2024/04/18 05:52:37;;;;;;;1.10;0.70;;;4.80;99.90;;;;;;5445846;26;20511;-78
2024/04/18 05:55:07;;;;;;;1.57;0.97;;;4.80;99.90;;;;;;5446584;26;20776;-79
2024/04/18 05:57:35;;;;;;;0.63;0.63;;;4.90;99.90;;;;;;5445001;26;20462;-79
2024/04/18 06:00:03;;;;;;;2.30;0.97;;;4.90;99.90;;;;;;5446302;26;21086;-79
2024/04/18 06:02:34;;;;;;;2.07;0.87;;;5.00;99.90;;;;;;5446199;26;20449;-79
2024/04/18 06:05:03;;;;;;;1.20;0.90;;;5.00;99.90;;;;;;5446787;26;20497;-79
2024/04/18 06:07:28;;;;;;;1.00;0.90;;;5.10;99.90;;;;;;5446668;26;20536;-79
2024/04/18 06:09:57;;;;;;;1.73;1.00;;;5.10;99.90;;;;;;5446391;26;20950;-79
2024/04/18 06:12:25;;;;;;;2.83;1.27;;;5.10;99.90;;;;;;5446386;26;20263;-79
2024/04/18 06:14:54;;;;;;;1.27;0.93;;;5.10;99.90;;;;;;5446077;26;20816;-79
2024/04/18 06:17:22;;;;;;;4.40;1.10;;;5.20;99.90;;;;;;5446066;26;21005;-79
2024/04/18 06:19:54;;;;;;;1.17;1.07;;;5.30;99.90;;;;;;5445857;26;20445;-79
2024/04/18 06:22:23;;;;;;;2.40;1.23;;;5.40;99.90;;;;;;5446048;26;20489;-78
2024/04/18 06:24:52;;;;;;;2.30;1.63;;;5.40;99.90;;;;;;5446256;26;20868;-79
2024/04/18 06:27:21;;;;;;;1.87;1.73;;;5.40;99.90;;;;;;5445160;26;20521;-79
2024/04/18 06:29:51;;;;;;;0.93;0.93;;;5.50;99.90;;;;;;5445554;26;20509;-79
2024/04/18 06:32:20;;;;;;;1.00;0.90;;;5.50;99.90;;;;;;5445658;26;20505;-79
2024/04/18 06:34:48;;;;;;;1.57;1.07;;;5.60;99.90;;;;;;5445605;26;20502;-79
2024/04/18 06:37:19;;;;;;;1.03;0.70;;;5.60;99.90;;;;;;5445805;26;20458;-78
2024/04/18 06:39:48;;;;;;;1.50;1.40;;;5.60;99.90;;;;;;5446003;26;21073;-78
2024/04/18 06:42:16;;;;;;;1.00;0.90;;;5.70;99.90;;;;;;5446100;26;20445;-78
2024/04/18 06:44:45;;;;;;;1.17;0.97;;;5.70;99.90;;;;;;5446331;26;20931;-78
2024/04/18 06:47:13;;;;;;;1.23;1.10;;;5.80;99.90;;;;;;5446037;26;20457;-78
2024/04/18 06:49:42;;;;;;;1.00;0.80;;;5.80;99.90;;;;;;5445361;26;20512;-78
2024/04/18 06:52:10;;;;;;;1.37;1.27;;;5.90;99.90;;;;;;5444980;26;20525;-78
2024/04/18 06:54:38;;;;;;;1.53;1.07;;;5.80;99.90;;;;;;5446527;26;21005;-78
2024/04/18 06:57:07;;;;;;;2.53;1.70;;;5.90;99.90;;;;;;5445564;26;20454;-78
2024/04/18 06:59:35;;;;;;;1.77;1.33;;;5.90;99.90;;;;;;5445096;26;20505;-78
2024/04/18 07:02:04;;;;;;;1.80;1.03;;;6.00;99.90;;;;;;5445382;26;20449;-79
2024/04/18 07:04:32;;;;;;;1.10;0.93;;;6.00;99.90;;;;;;5445343;26;20500;-79
2024/04/18 07:07:01;;;;;;;1.73;1.10;;;6.00;99.90;;;;;;5444649;26;20543;-79
2024/04/18 07:09:26;;;;;;;1.63;1.27;;;6.00;99.90;;;;;;5446057;26;20449;-79
2024/04/18 07:12:00;;;;;;;1.80;0.70;;;6.00;99.90;;;;;;5451015;26;20538;-79
2024/04/18 07:14:28;;;;;;;1.77;1.43;;;6.00;99.90;;;;;;5451813;26;20263;-79
2024/04/18 07:16:56;;;;;;;3.30;0.97;;;6.10;99.90;;;;;;5451281;26;20891;-79
2024/04/18 07:19:25;;;;;;;1.33;1.10;;;6.20;99.90;;;;;;5450906;26;20449;-79
2024/04/18 07:21:53;;;;;;;1.97;0.93;;;6.20;99.90;;;;;;5450377;26;20493;-79
2024/04/18 07:24:23;;;;;;;0.80;0.80;;;6.40;99.90;;;;;;5450282;26;20554;-79
2024/04/18 07:26:51;;;;;;;2.17;0.80;;;6.60;99.90;;;;;;5450197;26;20457;-79
2024/04/18 07:29:23;;;;;;;1.17;1.00;;;7.10;99.90;;;;;;5450559;26;20450;-79
2024/04/18 07:31:51;;;;;;;1.60;1.33;;;7.60;99.90;;;;;;5450358;26;21042;-79
2024/04/18 07:34:19;;;;;;;1.03;0.70;;;7.80;99.90;;;;;;5451029;26;20666;-79
2024/04/18 07:36:48;;;;;;;1.50;1.00;;;7.90;99.90;;;;;;5450456;26;20461;-79
2024/04/18 07:39:18;;;;;;;1.30;1.20;;;7.80;99.90;;;;;;5450184;26;20500;-79
2024/04/18 07:41:46;;;;;;;1.23;0.97;;;7.70;99.90;;;;;;5450565;26;20505;-79
2024/04/18 07:44:15;;;;;;;1.67;1.23;;;7.50;99.90;;;;;;5450437;26;20497;-79
2024/04/18 07:46:47;;;;;;;1.33;0.90;;;7.30;99.90;;;;;;5450090;26;20484;-79
2024/04/18 07:49:16;;;;;;;0.80;0.80;;;7.20;99.90;;;;;;5449915;26;20811;-79
2024/04/18 07:51:44;;;;;;;0.87;0.87;;;7.00;99.90;;;;;;5450072;26;20532;-79
2024/04/18 07:54:13;;;;;;;0.80;0.80;;;6.80;99.90;;;;;;5449669;26;20501;-79
2024/04/18 07:56:41;;;;;;;1.63;0.90;;;6.60;99.90;;;;;;5449626;26;20469;-79
2024/04/18 07:59:10;;;;;;;0.50;0.50;;;6.40;99.90;;;;;;5450887;26;20461;-79
2024/04/18 08:01:39;;;;;;;4.03;0.83;;;6.20;99.90;;;;;;5446616;26;20441;-79
2024/04/18 08:04:10;;;;;;;3.00;0.70;;;5.90;99.90;;;;;;5447902;26;20434;-79
2024/04/18 08:06:40;;;;;;;1.27;0.70;;;5.70;99.90;;;;;;5448099;26;20529;-79
2024/04/18 08:09:08;;;;;;;1.10;1.00;;;5.50;99.90;;;;;;5447673;26;20508;-79
2024/04/18 08:11:36;;;;;;;0.70;0.50;;;5.30;99.90;;;;;;5447757;26;21021;-79
2024/04/18 08:14:05;;;;;;;0.60;0.60;;;5.10;99.90;;;;;;5447567;26;20449;-79
2024/04/18 08:16:33;;;;;;;1.33;0.60;;;4.90;99.90;;;;;;5447671;26;20977;-79
2024/04/18 08:19:01;;;;;;;0.97;0.90;;;4.70;99.90;;;;;;5447562;26;20586;-79
2024/04/18 08:21:32;;;;;;;1.00;0.90;;;4.60;99.90;;;;;;5446258;26;20595;-79
2024/04/18 08:24:01;;;;;;;2.77;1.30;;;4.70;99.90;;;;;;5446770;26;20554;-79
2024/04/18 08:26:30;;;;;;;2.10;1.17;;;4.80;99.90;;;;;;5446712;26;20442;-78
2024/04/18 08:28:58;;;;;;;1.43;1.10;;;5.00;99.90;;;;;;5447146;26;20498;-78
2024/04/18 08:31:27;;;;;;;1.17;0.83;;;5.30;99.90;;;;;;5447041;26;20453;-79
2024/04/18 08:33:56;;;;;;;0.77;0.77;;;5.60;99.90;;;;;;5447325;26;20797;-79
2024/04/18 08:36:24;;;;;;;1.10;1.00;;;5.80;99.90;;;;;;5446692;26;20449;-79
2024/04/18 08:38:55;;;;;;;1.33;1.23;;;5.80;99.90;;;;;;5446608;26;20531;-79
2024/04/18 08:41:24;;;;;;;3.10;1.10;;;5.80;99.90;;;;;;5446801;26;20446;-79
2024/04/18 08:43:53;;;;;;;2.83;1.50;;;5.70;99.90;;;;;;5446407;26;20910;-79
2024/04/18 08:46:22;;;;;;;0.70;0.70;;;5.70;99.90;;;;;;5446270;26;20517;-78
2024/04/18 08:48:51;;;;;;;1.10;0.90;;;5.60;99.90;;;;;;5446300;26;20494;-79
2024/04/18 08:51:20;;;;;;;0.63;0.60;;;5.60;99.90;;;;;;5445699;26;20493;-79
2024/04/18 08:53:49;;;;;;;1.43;0.80;;;5.60;99.90;;;;;;5446123;26;20509;-79
2024/04/18 08:56:24;;;;;;;1.30;0.80;;;5.60;99.90;;;;;;5445501;26;20446;-79
2024/04/18 08:58:53;;;;;;;1.43;0.97;;;5.70;99.90;;;;;;5445744;26;20970;-79
2024/04/18 09:01:21;;;;;;;1.43;1.13;;;5.80;99.90;;;;;;5445761;26;20588;-79
2024/04/18 09:03:50;;;;;;;0.70;0.70;;;5.90;99.90;;;;;;5449559;26;20449;-80
2024/04/18 09:06:18;;;;;;;0.80;0.77;;;6.10;99.90;;;;;;5449075;26;20446;-80
2024/04/18 09:08:47;;;;;;;1.23;0.80;;;6.20;99.90;;;;;;5447719;26;20445;-80
2024/04/18 09:11:15;;;;;;;1.13;1.00;;;6.20;99.90;;;;;;5447128;26;20525;-80
2024/04/18 09:13:46;;;;;;;0.80;0.80;;;6.20;99.90;;;;;;5446793;26;21021;-80
2024/04/18 09:16:15;;;;;;;1.43;0.83;;;6.20;99.90;;;;;;5445803;26;20513;-79
2024/04/18 09:18:43;;;;;;;1.90;1.10;;;6.10;99.90;;;;;;5445581;26;20812;-79
2024/04/18 09:21:13;;;;;;;0.70;0.67;;;6.00;99.90;;;;;;5445884;26;20558;-79
2024/04/18 09:23:42;;;;;;;0.97;0.97;;;6.00;99.90;;;;;;5445058;26;20531;-79
2024/04/18 09:26:10;;;;;;;0.57;0.57;;;6.00;99.90;;;;;;5445146;26;20461;-79
2024/04/18 09:28:40;;;;;;;0.70;0.70;;;6.00;99.90;;;;;;5445066;26;20885;-79
2024/04/18 09:31:12;;;;;;;1.00;0.90;;;6.00;99.90;;;;;;5444824;26;20529;-79
2024/04/18 09:33:41;;;;;;;1.27;1.17;;;6.20;99.90;;;;;;5443532;26;20505;-79
2024/04/18 09:36:10;;;;;;;1.93;1.03;;;6.40;99.90;;;;;;5445035;26;20525;-79
2024/04/18 09:38:46;;;;;;;1.27;0.90;;;6.60;99.90;;;;;;5445186;26;20536;-79
2024/04/18 09:41:17;;;;;;;1.33;0.93;;;6.70;99.90;;;;;;5445001;26;20587;-79
2024/04/18 09:43:52;;;;;;;1.23;1.13;;;7.00;99.90;;;;;;5444684;26;20834;-79
2024/04/18 09:46:25;;;;;;;1.63;1.20;;;7.20;99.90;;;;;;5444873;26;20562;-79
2024/04/18 09:48:55;;;;;;;1.60;1.50;;;7.30;99.90;;;;;;5444739;26;20458;-79
2024/04/18 09:51:24;;;;;;;1.10;1.00;;;7.40;99.90;;;;;;5444847;26;20602;-79
2024/04/18 09:53:52;;;;;;;1.07;0.97;;;7.60;99.90;;;;;;5445678;26;20566;-81
2024/04/18 09:56:23;;;;;;;1.13;1.00;;;8.10;99.90;;;;;;5445384;26;20513;-79
2024/04/18 09:58:50;;;;;;;1.10;1.00;;;8.60;99.90;;;;;;5445044;26;20490;-80
2024/04/18 10:01:19;;;;;;;1.20;1.10;;;9.10;99.90;;;;;;5445978;26;20566;-79
2024/04/18 10:03:51;;;;;;;1.20;1.10;;;9.60;99.90;;;;;;5446060;26;20445;-79
2024/04/18 10:06:23;;;;;;;1.80;1.60;;;10.10;99.90;;;;;;5445489;26;21053;-79
2024/04/18 10:08:53;;;;;;;1.30;1.20;;;10.30;99.90;;;;;;5445429;26;20524;-79
2024/04/18 10:11:24;;;;;;;1.17;1.13;;;10.30;99.90;;;;;;5451122;26;20512;-78
2024/04/18 10:13:53;;;;;;;1.13;1.13;;;10.00;99.90;;;;;;5445862;26;20500;-79
2024/04/18 10:16:22;;;;;;;1.67;1.53;;;9.70;99.90;;;;;;5445354;26;20528;-79
2024/04/18 10:18:54;;;;;;;1.37;1.27;;;9.40;99.90;;;;;;5445825;26;20453;-79
2024/04/18 10:21:28;;;;;;;2.00;1.90;;;9.10;99.90;;;;;;5444876;26;20449;-79
2024/04/18 10:24:03;;;;;;;4.50;1.33;;;8.90;99.90;;;;;;5445722;26;20454;-79
2024/04/18 10:26:34;;;;;;;1.47;0.90;;;9.20;99.90;;;;;;5444717;26;20449;-80
2024/04/18 10:29:03;;;;;;;2.73;1.13;;;9.60;99.90;;;;;;5445026;26;20480;-80
2024/04/18 10:31:32;;;;;;;1.27;1.00;;;10.20;99.90;;;;;;5444613;26;20835;-79
2024/04/18 10:34:03;;;;;;;1.43;1.33;;;10.80;99.90;;;;;;5444816;26;20559;-79
2024/04/18 10:36:31;;;;;;;2.43;1.77;;;11.40;99.90;;;;;;5445780;26;21135;-79
2024/04/18 10:39:00;;;;;;;3.80;1.50;;;11.90;99.90;;;;;;5444938;26;20509;-79
2024/04/18 10:41:28;;;;;;;1.80;1.30;;;11.90;99.90;;;;;;5444848;26;20600;-79
2024/04/18 10:43:58;;;;;;;1.60;1.37;;;11.70;99.90;;;;;;5444067;26;20461;-79
2024/04/18 10:46:29;;;;;;;1.83;1.30;;;11.50;99.90;;;;;;5444803;26;20480;-79
2024/04/18 10:48:57;;;;;;;1.90;1.50;;;11.70;99.90;;;;;;5445526;26;20449;-79
2024/04/18 10:51:31;;;;;;;2.77;1.70;;;12.30;99.90;;;;;;5445819;26;20875;-79
2024/04/18 10:53:59;;;;;;;2.07;1.50;;;12.40;99.90;;;;;;5450905;26;20410;-80
2024/04/18 10:56:27;;;;;;;2.97;1.43;;;12.10;99.90;;;;;;5451058;26;20565;-80
2024/04/18 10:58:56;;;;;;;1.30;1.20;;;11.60;99.90;;;;;;5450223;26;20517;-80
2024/04/18 11:01:24;;;;;;;1.40;1.00;;;10.90;99.90;;;;;;5448303;26;20513;-80
2024/04/18 11:03:51;;;;;;;2.97;1.50;;;10.40;99.90;;;;;;5447716;26;20520;-80
2024/04/18 11:06:19;;;;;;;1.70;1.23;;;9.80;99.90;;;;;;5446720;26;20453;-80
2024/04/18 11:08:51;;;;;;;1.10;1.00;;;9.20;99.90;;;;;;5446084;26;20592;-81
2024/04/18 11:11:24;;;;;;;2.00;1.30;;;8.80;99.90;;;;;;5444660;26;20441;-78
2024/04/18 11:13:52;;;;;;;0.70;0.60;;;8.30;99.90;;;;;;5444493;26;20450;-80
2024/04/18 11:16:21;;;;;;;1.17;0.80;;;8.10;99.90;;;;;;5444158;26;20449;-79
2024/04/18 11:18:49;;;;;;;1.43;0.80;;;7.90;99.90;;;;;;5444146;26;20914;-79
2024/04/18 11:21:19;;;;;;;0.80;0.73;;;7.80;99.90;;;;;;5443916;26;20550;-79
2024/04/18 11:23:53;;;;;;;1.40;1.30;;;7.60;99.90;;;;;;5444409;26;20449;-79
2024/04/18 11:26:21;;;;;;;1.17;1.07;;;7.50;99.90;;;;;;5444545;26;20445;-79
2024/04/18 11:28:50;;;;;;;1.67;1.10;;;7.30;99.90;;;;;;5444524;26;20450;-79
2024/04/18 11:31:19;;;;;;;1.87;1.17;;;7.20;99.90;;;;;;5444673;26;20453;-79
2024/04/18 11:33:47;;;;;;;0.80;0.80;;;7.20;99.90;;;;;;5445173;26;20442;-79
2024/04/18 11:36:16;;;;;;;1.37;1.27;;;7.20;99.90;;;;;;5445401;26;20513;-79
2024/04/18 11:38:42;;;;;;;1.20;1.00;;;7.40;99.90;;;;;;5445758;26;20591;-79
2024/04/18 11:41:13;;;;;;;3.03;1.53;;;7.60;99.90;;;;;;5445605;26;20946;-79
2024/04/18 11:43:41;;;;;;;2.83;2.03;;;7.70;99.90;;;;;;5443986;26;20204;-79
2024/04/18 11:46:10;;;;;;;2.17;1.10;;;7.80;99.90;;;;;;5444340;26;20457;-79
2024/04/18 11:48:39;;;;;;;4.17;1.77;;;7.80;99.90;;;;;;5446232;26;20513;-79
2024/04/18 11:51:07;;;;;;;2.80;1.90;;;7.90;99.90;;;;;;5447252;26;20457;-79
2024/04/18 11:53:35;;;;;;;2.00;1.40;;;8.20;99.90;;;;;;5452446;26;20441;-79
2024/04/18 11:56:04;;;;;;;2.37;1.70;;;8.40;99.90;;;;;;5450607;26;20449;-79
2024/04/18 11:58:35;;;;;;;3.93;2.00;;;8.20;99.90;;;;;;5453207;26;20458;-79
2024/04/18 12:01:03;;;;;;;3.20;1.50;;;8.20;99.90;;;;;;5452703;26;20518;-80
2024/04/18 12:03:32;;;;;;;1.50;1.00;;;8.00;99.90;;;;;;5446725;26;20449;-80
2024/04/18 12:06:00;;;;;;;1.60;0.90;;;7.70;99.90;;;;;;5445992;26;20969;-80
2024/04/18 12:08:29;;;;;;;2.10;0.97;;;7.60;99.90;;;;;;5445951;26;20470;-80
2024/04/18 12:10:57;;;;;;;5.67;1.67;;;7.50;99.90;;;;;;5445759;26;20445;-80
2024/04/18 12:13:26;;;;;;;2.70;1.70;;;7.50;99.90;;;;;;5446784;26;20780;-78
2024/04/18 12:15:57;;;;;;;4.10;1.87;;;7.70;99.90;;;;;;5445738;26;20445;-78
2024/04/18 12:18:25;;;;;;;1.53;1.43;;;8.10;99.90;;;;;;5445484;26;20525;-77
2024/04/18 12:20:54;;;;;;;4.03;1.57;;;8.40;99.90;;;;;;5445403;26;20535;-77
2024/04/18 12:23:22;;;;;;;1.57;1.47;;;8.60;99.90;;;;;;5445491;26;20516;-77
2024/04/18 12:25:51;;;;;;;3.80;1.47;;;8.90;99.90;;;;;;5450379;26;20442;-77
2024/04/18 12:28:17;;;;;;;3.33;1.90;;;9.30;99.90;;;;;;5446137;26;20466;-78
2024/04/18 12:30:45;;;;;;;2.73;1.70;;;9.60;99.90;;;;;;5445438;26;20510;-78
2024/04/18 12:33:17;;;;;;;2.07;1.83;;;9.80;99.90;;;;;;5445597;26;20216;-77
2024/04/18 12:35:47;;;;;;;1.47;1.37;;;10.00;99.90;;;;;;5445516;26;20566;-77
2024/04/18 12:38:15;;;;;;;2.97;2.30;;;10.20;99.90;;;;;;5445380;26;21001;-78
2024/04/18 12:40:43;;;;;;;1.20;1.10;;;10.40;99.90;;;;;;5445103;26;20445;-77
2024/04/18 12:43:12;;;;;;;2.40;1.90;;;10.60;99.90;;;;;;5445056;26;20446;-77
2024/04/18 12:45:41;;;;;;;1.40;1.17;;;10.70;99.90;;;;;;5445099;26;20509;-78
2024/04/18 12:48:10;;;;;;;1.47;1.30;;;10.60;99.90;;;;;;5445720;26;20465;-78
2024/04/18 12:50:41;;;;;;;3.63;1.90;;;10.30;99.90;;;;;;5445068;26;20587;-78
2024/04/18 12:53:09;;;;;;;1.20;1.10;;;10.00;99.90;;;;;;5445265;26;20505;-78
2024/04/18 12:55:38;;;;;;;1.53;1.00;;;9.70;99.90;;;;;;5444844;26;20453;-78
2024/04/18 12:58:06;;;;;;;1.23;1.13;;;9.30;99.90;;;;;;5445523;26;20446;-78
2024/04/18 13:00:34;;;;;;;1.90;1.60;;;8.90;99.90;;;;;;5444790;26;20449;-78
2024/04/18 13:03:03;;;;;;;1.50;1.30;;;8.70;99.90;;;;;;5444984;26;20600;-78
2024/04/18 13:05:31;;;;;;;1.30;1.20;;;8.50;99.90;;;;;;5444760;26;20517;-78